Time;durP1;ratioP1;P1;durP2;ratioP2;P2;SDS_P1;SDS_P2;PMS_P1;PMS_P2;Temp;Humidity;BMP_temperature;BMP_pressure;BME280_temperature;BME280_humidity;BME280_pressure;Samples;Min_cycle;Max_cycle;Signal;HPM_P1;HPM_P2
2022/02/22 00:02:14;;;;;;;5.50;1.70;;;5.20;99.90;;;;;;5054913;28;20451;-71
2022/02/22 00:04:43;;;;;;;7.83;2.40;;;5.20;99.90;;;;;;5054600;28;20473;-72
2022/02/22 00:07:11;;;;;;;13.70;2.10;;;5.20;99.90;;;;;;5054717;28;20795;-71
2022/02/22 00:09:37;;;;;;;6.77;1.97;;;5.20;99.90;;;;;;5054795;28;20455;-72
2022/02/22 00:12:08;;;;;;;4.70;2.00;;;5.20;99.90;;;;;;5054454;28;20948;-71
2022/02/22 00:14:35;;;;;;;6.00;2.07;;;5.20;99.90;;;;;;5054587;28;20562;-71
2022/02/22 00:17:01;;;;;;;9.00;2.20;;;5.20;99.90;;;;;;5054203;28;20493;-72
2022/02/22 00:19:30;;;;;;;11.13;1.80;;;5.20;99.90;;;;;;5054373;28;20482;-71
2022/02/22 00:21:57;;;;;;;6.93;2.20;;;5.20;99.90;;;;;;5054271;28;20915;-71
2022/02/22 00:24:24;;;;;;;7.33;2.20;;;5.20;99.90;;;;;;5057190;28;20540;-71
2022/02/22 00:26:52;;;;;;;9.37;2.43;;;5.20;99.90;;;;;;5058265;28;20569;-71
2022/02/22 00:29:18;;;;;;;6.20;2.30;;;5.30;99.90;;;;;;5058678;28;20466;-71
2022/02/22 00:31:46;;;;;;;5.23;2.00;;;5.30;99.90;;;;;;5058301;28;20489;-71
2022/02/22 00:34:13;;;;;;;10.70;2.50;;;5.20;99.90;;;;;;5058808;28;20466;-71
2022/02/22 00:36:42;;;;;;;12.37;2.40;;;5.30;99.90;;;;;;5059151;28;20767;-72
2022/02/22 00:39:08;;;;;;;5.37;2.23;;;5.30;99.90;;;;;;5058658;28;20485;-71
2022/02/22 00:41:35;;;;;;;7.20;2.20;;;5.30;99.90;;;;;;5058285;28;20489;-73
2022/02/22 00:44:02;;;;;;;6.70;2.47;;;5.30;99.90;;;;;;5058179;28;20927;-71
2022/02/22 00:46:29;;;;;;;7.30;2.33;;;5.30;99.90;;;;;;5057823;28;20458;-70
2022/02/22 00:48:55;;;;;;;6.07;2.20;;;5.30;99.90;;;;;;5058264;28;20459;-72
2022/02/22 00:51:22;;;;;;;4.37;2.20;;;5.30;99.90;;;;;;5058010;28;20528;-72
2022/02/22 00:53:50;;;;;;;4.23;2.20;;;5.30;99.90;;;;;;5058159;28;20458;-72
2022/02/22 00:56:17;;;;;;;6.73;2.23;;;5.30;99.90;;;;;;5057667;28;20462;-71
2022/02/22 00:58:44;;;;;;;5.17;1.80;;;5.30;99.90;;;;;;5057812;28;20489;-71
2022/02/22 01:01:14;;;;;;;3.60;1.67;;;5.40;99.90;;;;;;5058234;28;20459;-71
2022/02/22 01:03:40;;;;;;;6.43;2.23;;;5.40;99.90;;;;;;5058541;28;20482;-72
2022/02/22 01:06:10;;;;;;;5.47;2.53;;;5.40;99.90;;;;;;5058231;28;20459;-72
2022/02/22 01:08:36;;;;;;;4.47;2.17;;;5.30;99.90;;;;;;5058055;28;20482;-72
2022/02/22 01:11:05;;;;;;;6.03;2.13;;;5.30;99.90;;;;;;5058231;28;20463;-72
2022/02/22 01:13:32;;;;;;;4.60;2.30;;;5.30;99.90;;;;;;5058439;28;20633;-71
2022/02/22 01:15:59;;;;;;;3.00;1.93;;;5.30;99.90;;;;;;5057653;28;20466;-72
2022/02/22 01:18:25;;;;;;;5.13;1.70;;;5.30;99.90;;;;;;5057581;28;20771;-71
2022/02/22 01:20:52;;;;;;;13.70;2.50;;;5.40;99.90;;;;;;5057723;28;20532;-71
2022/02/22 01:23:19;;;;;;;4.97;2.37;;;5.40;99.90;;;;;;5057409;28;20489;-72
2022/02/22 01:25:45;;;;;;;5.27;1.90;;;5.40;99.90;;;;;;5057509;28;20463;-73
2022/02/22 01:28:13;;;;;;;4.53;2.00;;;5.40;99.90;;;;;;5057440;28;20458;-72
2022/02/22 01:30:40;;;;;;;4.60;2.00;;;5.50;99.90;;;;;;5057523;28;20817;-72
2022/02/22 01:33:07;;;;;;;9.27;3.27;;;5.50;99.90;;;;;;5058337;28;20469;-72
2022/02/22 01:35:34;;;;;;;6.90;1.80;;;5.60;99.90;;;;;;5058571;28;20954;-72
2022/02/22 01:38:02;;;;;;;6.03;2.03;;;5.60;99.90;;;;;;5058146;28;20463;-72
2022/02/22 01:40:29;;;;;;;6.60;2.30;;;5.60;99.90;;;;;;5059057;28;20592;-72
2022/02/22 01:42:56;;;;;;;8.00;2.20;;;5.60;99.90;;;;;;5058858;28;20474;-72
2022/02/22 01:45:24;;;;;;;6.23;1.93;;;5.70;99.90;;;;;;5059856;28;20451;-72
2022/02/22 01:47:51;;;;;;;9.73;2.23;;;5.70;99.90;;;;;;5059665;28;20471;-72
2022/02/22 01:50:18;;;;;;;5.90;2.27;;;5.70;99.90;;;;;;5059891;28;20491;-72
2022/02/22 01:52:47;;;;;;;5.47;2.30;;;5.70;99.90;;;;;;5059816;28;20765;-72
2022/02/22 01:55:13;;;;;;;4.93;2.10;;;5.70;99.90;;;;;;5058117;28;20994;-72
2022/02/22 01:57:40;;;;;;;6.93;1.77;;;5.70;99.90;;;;;;5057877;28;20463;-72
2022/02/22 02:00:10;;;;;;;13.03;1.87;;;5.70;99.90;;;;;;5057072;28;20510;-71
2022/02/22 02:02:38;;;;;;;12.90;2.00;;;5.60;99.90;;;;;;5057126;28;20463;-72
2022/02/22 02:05:06;;;;;;;6.60;1.90;;;5.60;99.90;;;;;;5057085;28;20474;-72
2022/02/22 02:07:34;;;;;;;6.67;2.00;;;5.60;99.90;;;;;;5057247;28;20524;-72
2022/02/22 02:10:01;;;;;;;5.07;2.10;;;5.60;99.90;;;;;;5058214;28;20459;-72
2022/02/22 02:12:28;;;;;;;9.30;1.93;;;5.50;99.90;;;;;;5059036;28;20927;-71
2022/02/22 02:14:54;;;;;;;11.03;2.77;;;5.50;99.90;;;;;;5060479;28;20550;-71
2022/02/22 02:17:21;;;;;;;9.40;1.70;;;5.50;99.90;;;;;;5060131;28;20435;-72
2022/02/22 02:19:49;;;;;;;8.07;1.93;;;5.50;99.90;;;;;;5057060;28;20800;-72
2022/02/22 02:22:17;;;;;;;9.07;1.73;;;5.50;99.90;;;;;;5056334;28;20455;-72
2022/02/22 02:24:44;;;;;;;10.60;2.20;;;5.50;99.90;;;;;;5056358;28;20455;-72
2022/02/22 02:27:11;;;;;;;6.10;1.80;;;5.50;99.90;;;;;;5056481;28;20534;-72
2022/02/22 02:29:38;;;;;;;6.90;2.50;;;5.60;99.90;;;;;;5056694;28;20455;-72
2022/02/22 02:32:06;;;;;;;5.57;2.30;;;5.50;99.90;;;;;;5056299;28;20550;-72
2022/02/22 02:34:32;;;;;;;7.57;2.23;;;5.50;99.90;;;;;;5056171;28;20469;-72
2022/02/22 02:37:01;;;;;;;6.67;2.30;;;5.50;99.90;;;;;;5056306;28;20455;-72
2022/02/22 02:39:30;;;;;;;7.70;1.87;;;5.50;99.90;;;;;;5056069;28;20556;-72
2022/02/22 02:41:56;;;;;;;5.43;1.57;;;5.50;99.90;;;;;;5055732;28;20819;-72
2022/02/22 02:44:25;;;;;;;7.93;1.80;;;5.50;99.90;;;;;;5056033;28;20459;-72
2022/02/22 02:46:52;;;;;;;8.07;1.50;;;5.40;99.90;;;;;;5055490;28;20815;-72
2022/02/22 02:49:20;;;;;;;8.20;2.03;;;5.30;99.90;;;;;;5055933;28;20455;-73
2022/02/22 02:51:47;;;;;;;7.63;1.90;;;5.30;99.90;;;;;;5055944;28;20792;-73
2022/02/22 02:54:14;;;;;;;7.73;1.80;;;5.30;99.90;;;;;;5055680;28;20459;-71
2022/02/22 02:56:45;;;;;;;6.40;2.10;;;5.30;99.90;;;;;;5055834;28;20520;-73
2022/02/22 02:59:13;;;;;;;6.77;1.93;;;5.30;99.90;;;;;;5056023;28;20481;-72
2022/02/22 03:01:43;;;;;;;8.33;2.43;;;5.30;99.90;;;;;;5055862;28;20459;-72
2022/02/22 03:04:13;;;;;;;9.73;1.93;;;5.30;99.90;;;;;;5055855;28;20928;-71
2022/02/22 03:06:40;;;;;;;6.90;2.10;;;5.30;99.90;;;;;;5055659;28;20541;-73
2022/02/22 03:09:07;;;;;;;9.97;2.47;;;5.30;99.90;;;;;;5055784;28;20799;-73
2022/02/22 03:11:34;;;;;;;10.87;2.37;;;5.20;99.90;;;;;;5055323;28;20908;-73
2022/02/22 03:14:02;;;;;;;12.33;2.20;;;5.20;99.90;;;;;;5055255;28;20931;-72
2022/02/22 03:16:29;;;;;;;3.83;2.10;;;5.20;99.90;;;;;;5055558;28;20463;-72
2022/02/22 03:18:56;;;;;;;17.60;2.40;;;5.10;99.90;;;;;;5055613;28;20490;-72
2022/02/22 03:21:23;;;;;;;8.17;2.00;;;5.20;99.90;;;;;;5055363;28;20466;-72
2022/02/22 03:23:50;;;;;;;9.67;3.33;;;5.20;99.90;;;;;;5055817;28;20459;-72
2022/02/22 03:26:17;;;;;;;5.07;1.90;;;5.20;99.90;;;;;;5055477;28;20534;-72
2022/02/22 03:28:43;;;;;;;4.87;1.87;;;5.10;99.90;;;;;;5055234;28;20463;-72
2022/02/22 03:31:12;;;;;;;11.47;2.03;;;5.10;99.90;;;;;;5055073;28;20940;-72
2022/02/22 03:33:38;;;;;;;9.93;2.00;;;5.10;99.90;;;;;;5055410;28;20454;-72
2022/02/22 03:36:06;;;;;;;5.20;2.47;;;5.10;99.90;;;;;;5055261;28;20466;-72
2022/02/22 03:38:33;;;;;;;7.33;2.03;;;5.10;99.90;;;;;;5055493;28;20471;-72
2022/02/22 03:41:01;;;;;;;9.90;1.97;;;5.10;99.90;;;;;;5055997;28;20911;-72
2022/02/22 03:43:29;;;;;;;6.40;2.27;;;5.10;99.90;;;;;;5055256;28;20868;-72
2022/02/22 03:45:55;;;;;;;6.83;1.93;;;5.10;99.90;;;;;;5055881;28;20546;-72
2022/02/22 03:48:24;;;;;;;7.67;1.97;;;5.20;99.90;;;;;;5058881;28;20837;-72
2022/02/22 03:50:50;;;;;;;6.63;2.00;;;5.20;99.90;;;;;;5058984;28;20497;-72
2022/02/22 03:53:17;;;;;;;7.33;2.20;;;5.20;99.90;;;;;;5055674;28;20465;-72
2022/02/22 03:55:45;;;;;;;5.90;2.20;;;5.20;99.90;;;;;;5055708;28;20470;-72
2022/02/22 03:58:12;;;;;;;6.43;1.90;;;5.20;99.90;;;;;;5054593;28;20458;-72
2022/02/22 04:00:41;;;;;;;9.63;2.90;;;5.20;99.90;;;;;;5056097;28;20502;-72
2022/02/22 04:03:10;;;;;;;11.93;2.77;;;5.20;99.90;;;;;;5056757;28;20459;-72
2022/02/22 04:05:42;;;;;;;8.70;2.60;;;5.20;99.90;;;;;;5055930;28;20499;-72
2022/02/22 04:08:09;;;;;;;10.67;2.77;;;5.20;99.90;;;;;;5055291;28;20443;-71
2022/02/22 04:10:36;;;;;;;19.90;2.93;;;5.20;99.90;;;;;;5054802;28;20908;-71
2022/02/22 04:13:05;;;;;;;19.13;3.50;;;5.20;99.90;;;;;;5054956;28;20458;-71
2022/02/22 04:15:32;;;;;;;15.03;2.80;;;5.10;99.90;;;;;;5054844;28;20467;-71
2022/02/22 04:17:59;;;;;;;9.93;2.77;;;5.10;99.90;;;;;;5054986;28;20480;-72
2022/02/22 04:20:26;;;;;;;19.80;3.10;;;5.10;99.90;;;;;;5055214;28;20486;-71
2022/02/22 04:22:54;;;;;;;8.07;1.97;;;5.00;99.90;;;;;;5055183;28;20463;-71
2022/02/22 04:25:21;;;;;;;10.80;2.93;;;5.10;99.90;;;;;;5054467;28;20468;-71
2022/02/22 04:27:47;;;;;;;13.80;3.10;;;5.10;99.90;;;;;;5054456;28;20931;-71
2022/02/22 04:30:15;;;;;;;24.97;3.80;;;5.10;99.90;;;;;;5054346;28;20459;-71
2022/02/22 04:32:41;;;;;;;13.63;2.83;;;5.10;99.90;;;;;;5054395;28;20451;-71
2022/02/22 04:35:09;;;;;;;11.00;2.93;;;5.10;99.90;;;;;;5054172;28;20455;-71
2022/02/22 04:37:36;;;;;;;11.03;4.17;;;5.20;99.90;;;;;;5054572;28;20468;-71
2022/02/22 04:40:06;;;;;;;19.77;3.70;;;5.20;99.90;;;;;;5054045;28;20954;-71
2022/02/22 04:42:32;;;;;;;19.80;3.80;;;5.20;99.90;;;;;;5054155;28;20450;-71
2022/02/22 04:44:59;;;;;;;17.23;3.40;;;5.20;99.90;;;;;;5054273;28;20455;-71
2022/02/22 04:47:29;;;;;;;11.80;2.47;;;5.20;99.90;;;;;;5054389;28;20455;-71
2022/02/22 04:49:58;;;;;;;13.57;2.87;;;5.10;99.90;;;;;;5054284;28;20455;-71
2022/02/22 04:52:25;;;;;;;11.20;2.63;;;5.10;99.90;;;;;;5054131;28;20458;-71
2022/02/22 04:54:52;;;;;;;14.80;2.63;;;5.10;99.90;;;;;;5054972;28;20490;-71
2022/02/22 04:57:20;;;;;;;11.87;2.70;;;5.10;99.90;;;;;;5054883;28;20463;-71
2022/02/22 04:59:46;;;;;;;13.37;2.67;;;5.10;99.90;;;;;;5054361;28;20544;-71
2022/02/22 05:02:13;;;;;;;8.63;2.70;;;5.00;99.90;;;;;;5054403;28;20941;-71
2022/02/22 05:04:40;;;;;;;10.53;2.80;;;5.00;99.90;;;;;;5054239;28;20467;-71
2022/02/22 05:07:07;;;;;;;7.80;2.80;;;5.00;99.90;;;;;;5054021;28;20458;-71
2022/02/22 05:09:34;;;;;;;14.83;2.73;;;5.00;99.90;;;;;;5055626;28;20477;-71
2022/02/22 05:12:01;;;;;;;16.53;2.53;;;5.00;99.90;;;;;;5057831;28;20470;-71
2022/02/22 05:14:30;;;;;;;14.13;3.00;;;5.00;99.90;;;;;;5057767;28;20469;-71
2022/02/22 05:16:58;;;;;;;12.40;2.97;;;5.00;99.90;;;;;;5057870;28;20466;-71
2022/02/22 05:19:26;;;;;;;16.53;3.57;;;5.10;99.90;;;;;;5057483;28;20470;-71
2022/02/22 05:21:56;;;;;;;15.30;3.40;;;5.00;99.90;;;;;;5060373;28;20751;-71
2022/02/22 05:24:22;;;;;;;15.00;3.57;;;5.00;99.90;;;;;;5060116;28;20475;-70
2022/02/22 05:26:49;;;;;;;11.60;2.70;;;5.00;99.90;;;;;;5057935;28;20462;-71
2022/02/22 05:29:16;;;;;;;12.13;3.60;;;5.00;99.90;;;;;;5057512;28;20459;-71
2022/02/22 05:31:44;;;;;;;8.60;2.97;;;5.00;99.90;;;;;;5057717;28;20466;-71
2022/02/22 05:34:11;;;;;;;13.43;3.43;;;5.00;99.90;;;;;;5057007;28;20749;-72
2022/02/22 05:36:38;;;;;;;10.70;3.90;;;5.00;99.90;;;;;;5056900;28;20451;-72
2022/02/22 05:39:05;;;;;;;9.23;3.40;;;5.10;99.90;;;;;;5057530;28;20455;-72
2022/02/22 05:41:34;;;;;;;11.80;3.70;;;5.10;99.90;;;;;;5056798;28;20486;-72
2022/02/22 05:44:01;;;;;;;12.10;3.80;;;5.10;99.90;;;;;;5057213;28;20470;-72
2022/02/22 05:46:29;;;;;;;12.47;3.37;;;5.10;99.90;;;;;;5057242;28;20455;-71
2022/02/22 05:48:57;;;;;;;17.17;3.03;;;5.10;99.90;;;;;;5056752;28;20930;-72
2022/02/22 05:51:24;;;;;;;11.30;3.10;;;5.10;99.90;;;;;;5057153;28;20932;-72
2022/02/22 05:53:51;;;;;;;20.23;3.40;;;5.10;99.90;;;;;;5056952;28;20470;-71
2022/02/22 05:56:18;;;;;;;13.70;4.30;;;5.10;99.90;;;;;;5056780;28;20553;-72
2022/02/22 05:58:45;;;;;;;14.30;2.70;;;5.10;99.90;;;;;;5056953;28;20503;-70
2022/02/22 06:01:12;;;;;;;13.77;2.97;;;5.10;99.90;;;;;;5056745;28;20569;-72
2022/02/22 06:03:40;;;;;;;9.30;3.00;;;5.10;99.90;;;;;;5056854;28;20470;-71
2022/02/22 06:06:08;;;;;;;16.90;3.37;;;5.10;99.90;;;;;;5056718;28;20455;-72
2022/02/22 06:08:35;;;;;;;16.00;3.73;;;5.10;99.90;;;;;;5056288;28;20466;-72
2022/02/22 06:11:01;;;;;;;12.33;3.40;;;5.10;99.90;;;;;;5056648;28;20459;-72
2022/02/22 06:13:28;;;;;;;15.73;3.30;;;5.10;99.90;;;;;;5056308;28;20462;-71
2022/02/22 06:15:55;;;;;;;16.93;4.40;;;5.10;99.90;;;;;;5056359;28;20510;-72
2022/02/22 06:18:21;;;;;;;17.20;3.63;;;5.10;99.90;;;;;;5056662;28;20475;-72
2022/02/22 06:20:48;;;;;;;20.67;4.13;;;5.10;99.90;;;;;;5055579;28;20475;-71
2022/02/22 06:23:16;;;;;;;16.37;3.87;;;5.10;99.90;;;;;;5056486;28;20951;-71
2022/02/22 06:25:43;;;;;;;9.10;3.13;;;5.10;99.90;;;;;;5056729;28;20505;-71
2022/02/22 06:28:14;;;;;;;12.07;2.93;;;5.10;99.90;;;;;;5056427;28;20841;-72
2022/02/22 06:30:41;;;;;;;16.13;3.70;;;5.10;99.90;;;;;;5055978;28;20440;-72
2022/02/22 06:33:08;;;;;;;15.00;3.67;;;5.10;99.90;;;;;;5055885;28;20473;-72
2022/02/22 06:35:35;;;;;;;13.23;3.63;;;5.10;99.90;;;;;;5056526;28;20466;-72
2022/02/22 06:38:01;;;;;;;20.37;4.07;;;5.10;99.90;;;;;;5056234;28;20459;-72
2022/02/22 06:40:30;;;;;;;13.13;3.40;;;5.10;99.90;;;;;;5055879;28;20498;-73
2022/02/22 06:42:57;;;;;;;17.87;3.60;;;5.10;99.90;;;;;;5055828;28;20451;-72
2022/02/22 06:45:24;;;;;;;21.50;4.40;;;5.10;99.90;;;;;;5056367;28;20478;-71
2022/02/22 06:47:53;;;;;;;11.77;3.67;;;5.10;99.90;;;;;;5056295;28;20466;-72
2022/02/22 06:50:20;;;;;;;25.83;3.70;;;5.10;99.90;;;;;;5056038;28;20455;-72
2022/02/22 06:52:46;;;;;;;17.50;4.27;;;5.10;99.90;;;;;;5056436;28;20482;-71
2022/02/22 06:55:15;;;;;;;14.90;3.10;;;5.10;99.90;;;;;;5056355;28;20784;-72
2022/02/22 06:57:48;;;;;;;11.10;3.30;;;5.10;99.90;;;;;;5056949;28;20772;-72
2022/02/22 07:00:15;;;;;;;16.63;3.43;;;5.00;99.90;;;;;;5056515;28;20478;-72
2022/02/22 07:02:42;;;;;;;17.87;3.70;;;5.00;99.90;;;;;;5056597;28;20471;-71
2022/02/22 07:05:10;;;;;;;16.03;4.20;;;5.00;99.90;;;;;;5056708;28;20463;-72
2022/02/22 07:07:41;;;;;;;14.40;3.33;;;5.00;99.90;;;;;;5056841;28;20459;-72
2022/02/22 07:10:08;;;;;;;18.63;4.20;;;5.00;99.90;;;;;;5056575;28;20451;-73
2022/02/22 07:12:35;;;;;;;17.73;4.97;;;4.90;99.90;;;;;;5056572;28;20550;-72
2022/02/22 07:15:04;;;;;;;13.80;3.70;;;4.90;99.90;;;;;;5056244;28;20549;-72
2022/02/22 07:17:30;;;;;;;17.53;3.10;;;4.90;99.90;;;;;;5056591;28;20563;-71
2022/02/22 07:19:57;;;;;;;9.70;2.87;;;4.90;99.90;;;;;;5056251;28;20934;-72
2022/02/22 07:22:24;;;;;;;10.63;3.10;;;4.90;99.90;;;;;;5056399;28;20788;-72
2022/02/22 07:24:51;;;;;;;14.10;3.87;;;4.90;99.90;;;;;;5056157;28;20452;-72
2022/02/22 07:27:20;;;;;;;14.50;3.13;;;5.00;99.90;;;;;;5055967;28;20788;-72
2022/02/22 07:29:47;;;;;;;16.83;4.10;;;5.00;99.90;;;;;;5055419;28;20525;-71
2022/02/22 07:32:17;;;;;;;12.60;4.10;;;5.00;99.90;;;;;;5055206;28;20459;-72
2022/02/22 07:34:43;;;;;;;21.13;4.57;;;5.10;99.90;;;;;;5055181;28;20474;-72
2022/02/22 07:37:10;;;;;;;20.00;3.80;;;5.10;99.90;;;;;;5055960;28;20463;-72
2022/02/22 07:39:40;;;;;;;15.87;5.20;;;5.10;99.90;;;;;;5055941;28;20581;-72
2022/02/22 07:42:06;;;;;;;15.93;4.35;;;5.10;99.90;;;;;;5055086;28;20447;-72
2022/02/22 07:44:36;;;;;;;18.45;4.72;;;5.10;99.90;;;;;;5055772;28;20897;-71
2022/02/22 07:47:05;;;;;;;15.07;3.70;;;5.10;99.90;;;;;;5055423;28;20205;-72
2022/02/22 07:49:33;;;;;;;9.80;2.90;;;5.10;99.90;;;;;;5055838;28;20462;-72
2022/02/22 07:52:00;;;;;;;17.40;4.40;;;5.10;99.90;;;;;;5055703;28;20459;-72
2022/02/22 07:54:27;;;;;;;16.33;4.00;;;5.10;99.90;;;;;;5055703;28;20482;-72
2022/02/22 07:56:55;;;;;;;27.47;4.53;;;5.10;99.90;;;;;;5055749;28;20467;-72
2022/02/22 07:59:22;;;;;;;10.77;3.90;;;5.10;99.90;;;;;;5055592;28;20466;-73
2022/02/22 08:01:49;;;;;;;12.10;3.20;;;5.10;99.90;;;;;;5056091;28;20593;-72
2022/02/22 08:04:16;;;;;;;14.80;3.40;;;5.10;99.90;;;;;;5055509;28;20888;-73
2022/02/22 08:06:44;;;;;;;10.70;2.80;;;5.10;99.90;;;;;;5055950;28;20790;-72
2022/02/22 08:09:11;;;;;;;11.13;3.60;;;5.10;99.90;;;;;;5055611;28;20510;-72
2022/02/22 08:11:38;;;;;;;15.27;3.10;;;5.10;99.90;;;;;;5055875;28;20818;-72
2022/02/22 08:14:06;;;;;;;13.70;2.80;;;5.10;99.90;;;;;;5056439;28;20838;-71
2022/02/22 08:16:32;;;;;;;9.83;2.70;;;5.20;99.90;;;;;;5058656;28;20471;-72
2022/02/22 08:19:01;;;;;;;14.77;3.50;;;5.20;99.90;;;;;;5056701;28;20744;-71
2022/02/22 08:21:27;;;;;;;17.30;3.53;;;5.30;99.90;;;;;;5055635;28;20474;-72
2022/02/22 08:23:56;;;;;;;15.60;3.30;;;5.30;99.90;;;;;;5055828;28;20558;-73
2022/02/22 08:26:22;;;;;;;16.83;3.93;;;5.30;99.90;;;;;;5056290;28;20454;-73
2022/02/22 08:28:50;;;;;;;18.97;4.27;;;5.40;99.90;;;;;;5056374;28;20860;-73
2022/02/22 08:31:16;;;;;;;15.57;3.17;;;5.40;99.90;;;;;;5058787;28;20466;-72
2022/02/22 08:33:45;;;;;;;10.23;3.63;;;5.40;99.90;;;;;;5057144;28;20465;-72
2022/02/22 08:36:14;;;;;;;10.70;3.73;;;5.40;99.90;;;;;;5056275;28;20512;-73
2022/02/22 08:38:42;;;;;;;15.23;3.40;;;5.40;99.90;;;;;;5055009;28;20459;-74
2022/02/22 08:41:10;;;;;;;13.97;3.17;;;5.40;99.90;;;;;;5054953;28;20552;-71
2022/02/22 08:43:39;;;;;;;19.30;3.90;;;5.50;99.90;;;;;;5055223;28;20455;-72
2022/02/22 08:46:06;;;;;;;14.40;3.40;;;5.50;99.90;;;;;;5059497;28;20455;-71
2022/02/22 08:48:33;;;;;;;11.13;3.83;;;5.50;99.90;;;;;;5059273;28;20455;-75
2022/02/22 08:50:59;;;;;;;13.00;3.90;;;5.50;99.90;;;;;;5059222;28;20465;-72
2022/02/22 08:53:26;;;;;;;18.83;3.70;;;5.50;99.90;;;;;;5059058;28;20528;-74
2022/02/22 08:55:53;;;;;;;13.87;3.27;;;5.50;99.90;;;;;;5059443;28;20459;-71
2022/02/22 08:58:22;;;;;;;21.87;4.07;;;5.50;99.90;;;;;;5059461;28;20516;-73
2022/02/22 09:00:49;;;;;;;7.90;3.20;;;5.60;99.90;;;;;;5059116;28;20478;-72
2022/02/22 09:03:16;;;;;;;14.80;3.07;;;5.60;99.90;;;;;;5059031;28;20454;-74
2022/02/22 09:05:46;;;;;;;15.30;4.40;;;5.60;99.90;;;;;;5059338;28;20455;-75
2022/02/22 09:08:15;;;;;;;20.50;3.23;;;5.70;99.90;;;;;;5059728;28;20466;-74
2022/02/22 09:10:45;;;;;;;12.20;2.87;;;5.80;99.90;;;;;;5059484;28;20532;-72
2022/02/22 09:13:12;;;;;;;10.10;2.47;;;5.80;99.90;;;;;;5059449;28;20549;-72
2022/02/22 09:15:41;;;;;;;12.50;3.10;;;5.80;99.90;;;;;;5058954;28;20451;-72
2022/02/22 09:18:08;;;;;;;12.00;2.57;;;5.90;99.90;;;;;;5058807;28;20532;-73
2022/02/22 09:20:35;;;;;;;8.00;2.50;;;6.00;99.90;;;;;;5058985;28;20477;-71
2022/02/22 09:23:02;;;;;;;14.07;3.10;;;6.10;99.90;;;;;;5058858;28;20538;-71
2022/02/22 09:25:32;;;;;;;12.30;2.60;;;6.10;99.90;;;;;;5058555;28;20556;-71
2022/02/22 09:28:00;;;;;;;9.97;3.30;;;6.00;99.90;;;;;;5058787;28;20454;-72
2022/02/22 09:30:31;;;;;;;5.37;1.83;;;6.00;99.90;;;;;;5059596;28;20939;-72
2022/02/22 09:33:01;;;;;;;9.80;2.43;;;6.10;99.90;;;;;;5060387;28;20782;-72
2022/02/22 09:35:28;;;;;;;8.47;2.17;;;6.20;99.90;;;;;;5060236;28;20600;-72
2022/02/22 09:37:57;;;;;;;10.37;2.27;;;6.20;99.90;;;;;;5059969;28;20546;-72
2022/02/22 09:40:25;;;;;;;5.27;2.00;;;6.20;99.90;;;;;;5060167;28;20491;-71
2022/02/22 09:42:54;;;;;;;15.40;2.80;;;6.20;99.90;;;;;;5063095;28;20592;-73
2022/02/22 09:45:22;;;;;;;7.57;2.03;;;6.10;99.90;;;;;;5065464;28;20459;-73
2022/02/22 09:47:52;;;;;;;10.77;2.20;;;6.20;99.90;;;;;;5066285;28;20455;-72
2022/02/22 09:50:23;;;;;;;10.10;2.33;;;6.20;99.90;;;;;;5065586;28;20490;-73
2022/02/22 09:52:50;;;;;;;10.13;2.60;;;6.20;99.90;;;;;;5064858;28;20870;-73
2022/02/22 09:55:18;;;;;;;8.50;2.70;;;6.20;99.90;;;;;;5062006;28;20526;-71
2022/02/22 09:57:47;;;;;;;8.77;2.30;;;6.20;99.90;;;;;;5058689;28;20487;-73
2022/02/22 10:00:19;;;;;;;9.63;3.43;;;6.30;99.90;;;;;;5059118;28;20451;-72
2022/02/22 10:02:48;;;;;;;10.63;2.47;;;6.20;99.90;;;;;;5059396;28;20497;-72
2022/02/22 10:05:17;;;;;;;11.70;2.57;;;6.20;99.90;;;;;;5058588;28;20467;-71
2022/02/22 10:07:52;;;;;;;9.97;2.77;;;6.30;99.90;;;;;;5057991;28;20451;-72
2022/02/22 10:10:20;;;;;;;7.80;2.23;;;6.40;99.90;;;;;;5057877;28;20439;-73
2022/02/22 10:12:55;;;;;;;11.70;3.10;;;6.40;99.90;;;;;;5057488;28;20455;-73
2022/02/22 10:15:23;;;;;;;7.97;1.97;;;6.40;99.90;;;;;;5057844;28;20469;-73
2022/02/22 10:17:52;;;;;;;10.27;2.50;;;6.50;99.90;;;;;;5057112;28;20459;-72
2022/02/22 10:20:21;;;;;;;9.27;2.23;;;6.60;99.90;;;;;;5056588;28;20584;-72
2022/02/22 10:22:53;;;;;;;6.63;2.00;;;6.50;99.90;;;;;;5056165;28;20807;-72
2022/02/22 10:25:22;;;;;;;9.00;2.70;;;6.50;99.90;;;;;;5056329;28;20444;-73
2022/02/22 10:27:50;;;;;;;8.50;2.50;;;6.50;99.90;;;;;;5056424;28;20469;-72
2022/02/22 10:30:38;;;;;;;10.53;2.60;;;6.50;99.90;;;;;;5057160;28;20463;-71
2022/02/22 10:33:10;;;;;;;8.97;2.97;;;6.30;99.90;;;;;;5056828;28;20444;-72
2022/02/22 10:35:40;;;;;;;11.57;2.67;;;6.30;99.90;;;;;;5057276;28;20447;-72
2022/02/22 10:38:17;;;;;;;15.43;2.50;;;6.40;99.90;;;;;;5056403;28;20459;-72
2022/02/22 10:40:51;;;;;;;10.50;2.70;;;6.40;99.90;;;;;;5056434;28;20490;-72
2022/02/22 10:43:29;;;;;;;12.83;2.73;;;6.50;99.90;;;;;;5056915;28;20443;-72
2022/02/22 10:45:58;;;;;;;7.80;2.17;;;6.60;99.90;;;;;;5056824;28;20506;-72
2022/02/22 10:48:38;;;;;;;10.33;2.50;;;6.70;99.90;;;;;;5056350;28;20462;-72
2022/02/22 10:51:16;;;;;;;10.23;2.63;;;6.70;99.90;;;;;;5056873;28;20907;-72
2022/02/22 10:53:46;;;;;;;8.27;3.00;;;6.80;99.90;;;;;;5057330;28;20443;-73
2022/02/22 10:56:15;;;;;;;8.20;2.57;;;6.80;99.90;;;;;;5056716;28;20474;-73
2022/02/22 10:58:44;;;;;;;11.03;2.47;;;6.70;99.90;;;;;;5056009;28;20928;-72
2022/02/22 11:01:13;;;;;;;14.83;3.17;;;6.70;99.90;;;;;;5055626;28;20542;-72
2022/02/22 11:03:40;;;;;;;10.30;2.80;;;6.60;99.90;;;;;;5056178;28;20455;-72
2022/02/22 11:06:07;;;;;;;16.63;3.40;;;6.70;99.90;;;;;;5055828;28;20485;-72
2022/02/22 11:08:36;;;;;;;8.27;2.70;;;6.70;99.90;;;;;;5055372;28;20485;-71
2022/02/22 11:11:10;;;;;;;10.50;3.00;;;6.60;99.90;;;;;;5055773;28;20455;-72
2022/02/22 11:13:37;;;;;;;6.97;2.80;;;6.50;99.90;;;;;;5055939;28;20439;-72
2022/02/22 11:16:15;;;;;;;14.10;3.00;;;6.30;99.90;;;;;;5055958;28;20757;-72
2022/02/22 11:18:50;;;;;;;9.73;2.40;;;6.20;99.90;;;;;;5056671;28;20506;-72
2022/02/22 11:21:22;;;;;;;5.87;2.50;;;6.20;99.90;;;;;;5056161;28;20435;-72
2022/02/22 11:24:02;;;;;;;13.50;2.70;;;6.10;99.90;;;;;;5056012;28;20451;-72
2022/02/22 11:26:49;;;;;;;9.00;2.33;;;6.00;99.90;;;;;;5060678;28;20471;-72
2022/02/22 11:29:16;;;;;;;9.37;2.30;;;6.00;99.90;;;;;;5059100;28;20465;-72
2022/02/22 11:31:55;;;;;;;5.73;2.40;;;6.10;99.90;;;;;;5055565;28;20451;-72
2022/02/22 11:34:31;;;;;;;17.33;3.87;;;6.20;99.90;;;;;;5056073;28;20496;-73
2022/02/22 11:36:59;;;;;;;10.93;2.30;;;6.20;99.90;;;;;;5055555;28;20477;-73
2022/02/22 11:39:26;;;;;;;9.23;2.50;;;6.30;99.90;;;;;;5055190;28;20478;-72
2022/02/22 11:41:55;;;;;;;11.80;2.90;;;6.40;99.90;;;;;;5054786;28;20582;-72
2022/02/22 11:44:24;;;;;;;10.63;2.20;;;6.50;99.90;;;;;;5055448;28;20479;-72
2022/02/22 11:46:54;;;;;;;7.40;2.00;;;6.60;99.90;;;;;;5055842;28;20517;-72
2022/02/22 11:49:24;;;;;;;9.60;2.53;;;6.70;99.90;;;;;;5058756;28;20466;-73
2022/02/22 11:51:53;;;;;;;12.27;2.80;;;6.80;99.90;;;;;;5058938;28;20502;-71
2022/02/22 11:54:21;;;;;;;9.07;2.90;;;6.90;99.90;;;;;;5057657;28;20269;-72
2022/02/22 11:56:52;;;;;;;7.17;2.00;;;7.00;99.90;;;;;;5055948;28;20467;-71
2022/02/22 11:59:22;;;;;;;8.33;2.23;;;7.00;99.90;;;;;;5056583;28;20428;-72
2022/02/22 12:01:56;;;;;;;8.17;2.40;;;7.00;99.90;;;;;;5056204;28;20490;-72
2022/02/22 12:04:26;;;;;;;4.73;1.80;;;7.00;99.90;;;;;;5055901;28;20455;-72
2022/02/22 12:06:56;;;;;;;16.03;2.70;;;7.00;99.90;;;;;;5056911;28;20502;-72
2022/02/22 12:09:35;;;;;;;9.33;2.30;;;7.00;99.90;;;;;;5057385;28;20466;-70
2022/02/22 12:12:06;;;;;;;11.50;3.03;;;7.10;99.90;;;;;;5060560;28;20484;-74
2022/02/22 12:14:38;;;;;;;10.67;2.40;;;7.30;99.90;;;;;;5059132;28;20463;-74
2022/02/22 12:17:09;;;;;;;6.30;2.10;;;7.50;99.90;;;;;;5056130;28;20592;-73
2022/02/22 12:19:35;;;;;;;10.70;2.40;;;8.10;99.90;;;;;;5060149;28;20856;-74
2022/02/22 12:22:06;;;;;;;11.67;2.80;;;8.60;99.90;;;;;;5064095;28;20491;-74
2022/02/22 12:24:33;;;;;;;10.70;2.90;;;9.10;99.90;;;;;;5063922;28;20817;-74
2022/02/22 12:27:10;;;;;;;7.83;2.70;;;8.80;99.90;;;;;;5063406;28;20467;-73
2022/02/22 12:29:39;;;;;;;10.83;2.43;;;8.50;99.90;;;;;;5063850;28;20450;-74
2022/02/22 12:32:07;;;;;;;11.63;2.70;;;8.70;99.90;;;;;;5063485;28;20455;-72
2022/02/22 12:34:34;;;;;;;7.27;2.80;;;9.10;99.90;;;;;;5062792;28;20451;-73
2022/02/22 12:37:02;;;;;;;15.20;2.43;;;9.30;99.90;;;;;;5060304;28;20455;-73
2022/02/22 12:39:33;;;;;;;8.33;2.50;;;9.70;99.90;;;;;;5058991;28;20466;-73
2022/02/22 12:42:01;;;;;;;11.00;2.67;;;9.70;99.90;;;;;;5058820;28;20495;-73
2022/02/22 12:44:32;;;;;;;10.67;2.90;;;10.10;99.90;;;;;;5059259;28;20462;-73
2022/02/22 12:47:03;;;;;;;11.30;2.97;;;10.40;99.90;;;;;;5059051;28;20497;-73
2022/02/22 12:49:32;;;;;;;9.30;2.87;;;10.20;99.90;;;;;;5059417;28;20954;-73
2022/02/22 12:52:07;;;;;;;7.57;3.03;;;10.20;99.90;;;;;;5059473;28;20486;-75
2022/02/22 12:54:35;;;;;;;10.13;2.67;;;10.50;99.90;;;;;;5058525;28;20496;-73
2022/02/22 12:57:04;;;;;;;12.30;3.70;;;10.90;99.90;;;;;;5058783;28;20455;-73